createdAt,value
2016-12-16T00:00:20.750Z,97.28
2016-12-16T00:00:48.924Z,97.37
2016-12-16T00:01:16.917Z,97.47
2016-12-16T00:01:45.018Z,97.28
2016-12-16T00:02:12.923Z,97.66
2016-12-16T00:02:40.840Z,97.18
2016-12-16T00:03:08.830Z,97.37
2016-12-16T00:03:36.876Z,97.28
2016-12-16T00:04:04.800Z,97.66
2016-12-16T00:04:32.893Z,97.42
2016-12-16T00:05:00.825Z,97.47
2016-12-16T00:05:28.892Z,97.47
2016-12-16T00:05:56.992Z,98
2016-12-16T00:06:25.101Z,97.9
2016-12-16T00:06:53.281Z,97.8
2016-12-16T00:07:21.423Z,98
2016-12-16T00:07:49.539Z,98.28
2016-12-16T00:08:17.782Z,98
2016-12-16T00:08:45.767Z,98.09
2016-12-16T00:09:13.724Z,98.14
2016-12-16T00:09:41.882Z,97.9
2016-12-16T00:10:09.826Z,98.09
2016-12-16T00:10:37.679Z,98.09
2016-12-16T00:11:05.687Z,97.75
2016-12-16T00:11:33.679Z,97.8
2016-12-16T00:12:01.739Z,97.95
2016-12-16T00:12:29.689Z,97.85
2016-12-16T00:12:57.652Z,97.47
2016-12-16T00:13:25.607Z,97.47
2016-12-16T00:13:53.496Z,96.94
2016-12-16T00:14:21.385Z,97.18
2016-12-16T00:14:49.481Z,97.23
2016-12-16T00:15:17.531Z,97.23
2016-12-16T00:15:45.522Z,97.04
2016-12-16T00:16:13.435Z,97.04
2016-12-16T00:16:41.553Z,97.33
2016-12-16T00:17:09.483Z,97.23
2016-12-16T00:17:37.624Z,97.42
2016-12-16T00:18:05.722Z,97.71
2016-12-16T00:18:34.012Z,97.42
2016-12-16T00:19:01.878Z,97.52
2016-12-16T00:19:29.885Z,97.8
2016-12-16T00:19:57.879Z,98
2016-12-16T00:20:26.005Z,98
2016-12-16T00:20:53.970Z,97.9
2016-12-16T00:21:22.113Z,97.9
2016-12-16T00:21:50.045Z,97.9
2016-12-16T00:22:18.101Z,98
2016-12-16T00:22:46.078Z,98.09
2016-12-16T00:23:14.047Z,97.9
2016-12-16T00:23:42.147Z,98.28
2016-12-16T00:24:10.237Z,98.09
2016-12-16T00:24:38.103Z,98.09
2016-12-16T00:25:06.091Z,97.71
2016-12-16T00:25:34.166Z,97.04
2016-12-16T00:26:02.159Z,97.23
2016-12-16T00:26:30.314Z,97.23
2016-12-16T00:26:58.268Z,97.23
2016-12-16T00:27:26.337Z,97.04
2016-12-16T00:27:54.326Z,97.42
2016-12-16T00:28:22.108Z,97.23
2016-12-16T00:28:50.231Z,97.42
2016-12-16T00:29:18.319Z,97.52
2016-12-16T00:29:46.329Z,97.61
2016-12-16T00:30:14.201Z,97.9
2016-12-16T00:30:42.188Z,97.33
2016-12-16T00:31:10.266Z,97.33
2016-12-16T00:31:38.256Z,97.23
2016-12-16T00:32:06.336Z,97.42
2016-12-16T00:32:34.415Z,97.13
2016-12-16T00:33:02.400Z,97.33
2016-12-16T00:33:30.372Z,96.84
2016-12-16T00:33:58.363Z,96.84
2016-12-16T00:34:26.209Z,97.04
2016-12-16T00:34:54.282Z,96.94
2016-12-16T00:35:22.282Z,97.04
2016-12-16T00:35:50.116Z,97.23
2016-12-16T00:36:18.359Z,97.23
2016-12-16T00:36:46.397Z,97.04
2016-12-16T00:37:14.421Z,97.04
2016-12-16T00:37:42.372Z,96.94
2016-12-16T00:38:10.534Z,97.23
2016-12-16T00:38:38.708Z,97.04
2016-12-16T00:39:06.789Z,97.42
2016-12-16T00:39:34.869Z,97.42
2016-12-16T00:40:03.055Z,97.42
2016-12-16T00:40:31.227Z,97.71
2016-12-16T00:40:59.219Z,97.8
2016-12-16T00:41:27.485Z,97.8
2016-12-16T00:41:55.587Z,98
2016-12-16T00:42:23.569Z,97.9
2016-12-16T00:42:51.587Z,98.28
2016-12-16T00:43:19.788Z,98.19
2016-12-16T00:43:47.984Z,98.09
2016-12-16T00:44:16.123Z,97.9
2016-12-16T00:44:57.555Z,98
2016-12-16T00:45:44.906Z,97.61
2016-12-16T00:46:12.978Z,98
2016-12-16T00:46:41.296Z,98.09
2016-12-16T00:47:09.441Z,98.09
2016-12-16T00:47:37.483Z,98.09
2016-12-16T00:48:05.414Z,98.28
2016-12-16T00:48:33.489Z,98.28
2016-12-16T00:49:01.546Z,98.09
2016-12-16T00:49:29.607Z,98.09
2016-12-16T00:49:57.931Z,97.8
2016-12-16T00:50:26.079Z,98.28
2016-12-16T00:50:54.322Z,98.38
2016-12-16T00:51:22.561Z,98.38
2016-12-16T00:51:50.629Z,98.47
2016-12-16T00:52:18.728Z,98.09
2016-12-16T00:52:46.817Z,98.33
2016-12-16T00:53:14.864Z,98.14
2016-12-16T00:53:42.838Z,98.33
2016-12-16T00:54:10.985Z,98.81
2016-12-16T00:54:39.090Z,98.95
2016-12-16T00:55:07.159Z,98.81
2016-12-16T00:55:35.434Z,98.71
2016-12-16T00:56:03.551Z,98.61
2016-12-16T00:56:31.622Z,98.81
2016-12-16T00:56:59.750Z,98.61
2016-12-16T00:57:27.841Z,98.71
2016-12-16T00:57:55.887Z,98.81
2016-12-16T00:58:23.753Z,98.81
2016-12-16T00:58:51.842Z,99.38
2016-12-16T00:59:19.826Z,99.1
2016-12-16T00:59:47.685Z,98.61
2016-12-16T01:00:15.869Z,98.81
2016-12-16T01:00:44.126Z,98.81
2016-12-16T01:01:12.082Z,98.61
2016-12-16T01:01:40.162Z,98.61
2016-12-16T01:02:08.120Z,98.71
2016-12-16T01:02:36.385Z,98.61
2016-12-16T01:03:04.638Z,98.81
2016-12-16T01:03:32.721Z,98.61
2016-12-16T01:04:00.572Z,98.43
2016-12-16T01:04:28.370Z,98.61
2016-12-16T01:04:56.637Z,98.52
2016-12-16T01:05:24.606Z,98.71
2016-12-16T01:05:52.735Z,99.1
2016-12-16T01:06:20.810Z,99.1
2016-12-16T01:06:48.899Z,98.43
2016-12-16T01:07:16.842Z,99.29
2016-12-16T01:07:44.975Z,99.1
2016-12-16T01:08:13.078Z,99
2016-12-16T01:08:41.109Z,99
2016-12-16T01:09:09.259Z,99.67
2016-12-16T01:09:37.356Z,99.67
2016-12-16T01:10:05.342Z,99.19
2016-12-16T01:10:33.386Z,99.29
2016-12-16T01:11:01.478Z,99.19
2016-12-16T01:11:29.562Z,99.29
2016-12-16T01:11:57.752Z,99.19
2016-12-16T01:12:25.812Z,99.38
2016-12-16T01:12:53.864Z,99.1
2016-12-16T01:13:21.761Z,99.19
2016-12-16T01:13:49.583Z,99.29
2016-12-16T01:14:17.668Z,99.1
2016-12-16T01:14:45.654Z,99.29
2016-12-16T01:15:13.758Z,99.48
2016-12-16T01:15:42.040Z,99.1
2016-12-16T01:16:09.945Z,99.29
2016-12-16T01:16:38.127Z,99
2016-12-16T01:17:06.246Z,99.57
2016-12-16T01:17:34.338Z,99.43
2016-12-16T01:18:02.469Z,99.29
2016-12-16T01:18:30.439Z,99.33
2016-12-16T01:18:58.601Z,98.95
2016-12-16T01:19:26.852Z,99.33
2016-12-16T01:19:55.149Z,99.04
2016-12-16T01:20:23.190Z,99.14
2016-12-16T01:20:51.170Z,99.04
2016-12-16T01:21:19.244Z,99.14
2016-12-16T01:21:47.330Z,99.14
2016-12-16T01:22:15.375Z,99.24
2016-12-16T01:22:43.548Z,99.52
2016-12-16T01:23:11.656Z,99.52
2016-12-16T01:23:39.739Z,99.14
2016-12-16T01:24:07.860Z,99.52
2016-12-16T01:24:35.865Z,99.43
2016-12-16T01:25:04.043Z,99.24
2016-12-16T01:25:32.220Z,99.71
2016-12-16T01:26:00.177Z,99.52
2016-12-16T01:26:28.221Z,99.43
2016-12-16T01:26:56.407Z,99.9
2016-12-16T01:27:24.550Z,99.9
2016-12-16T01:27:52.571Z,99.99
2016-12-16T01:28:20.808Z,99.99
2016-12-16T01:28:48.814Z,99.99
2016-12-16T01:29:17.101Z,99.99
2016-12-16T01:29:45.253Z,99.99
2016-12-16T01:30:13.448Z,99.99
2016-12-16T01:30:41.715Z,99.99
2016-12-16T01:31:09.639Z,99.99
2016-12-16T01:31:37.803Z,99.99
2016-12-16T01:32:05.768Z,99.99
2016-12-16T01:32:33.652Z,99.99
2016-12-16T01:33:01.643Z,99.99
2016-12-16T01:33:29.933Z,99.99
2016-12-16T01:33:57.931Z,99.99
2016-12-16T01:34:26.023Z,99.99
2016-12-16T01:34:53.880Z,99.99
2016-12-16T01:35:22.123Z,99.99
2016-12-16T01:35:50.323Z,99.99
2016-12-16T01:36:18.224Z,99.99
2016-12-16T01:36:46.478Z,99.99
2016-12-16T01:37:14.513Z,99.99
2016-12-16T01:37:42.631Z,99.99
2016-12-16T01:38:10.680Z,99.99
2016-12-16T01:38:38.862Z,99.99
2016-12-16T01:39:07.106Z,99.99
2016-12-16T01:39:35.332Z,99.99
2016-12-16T01:40:03.358Z,99.99
2016-12-16T01:40:31.340Z,99.99
2016-12-16T01:40:59.356Z,99.99
2016-12-16T01:41:27.346Z,99.99
2016-12-16T01:41:55.563Z,99.99
2016-12-16T01:42:23.592Z,99.99
2016-12-16T01:42:51.668Z,99.99
2016-12-16T01:43:19.699Z,99.99
2016-12-16T01:43:47.849Z,99.99
2016-12-16T01:44:15.892Z,99.99
2016-12-16T01:44:43.970Z,99.99
2016-12-16T01:45:11.897Z,99.99
2016-12-16T01:45:40.064Z,99.99
2016-12-16T01:46:08.150Z,99.99
2016-12-16T01:46:36.344Z,99.99
2016-12-16T01:47:04.582Z,99.99
2016-12-16T01:47:32.741Z,99.99
2016-12-16T01:48:00.907Z,99.99
2016-12-16T01:48:28.906Z,99.99
2016-12-16T01:48:57.012Z,99.99
2016-12-16T01:49:25.139Z,99.99
2016-12-16T01:49:53.230Z,99.99
2016-12-16T01:50:21.443Z,99.99
2016-12-16T01:50:49.550Z,99.99
2016-12-16T01:51:17.612Z,99.99
2016-12-16T01:51:45.798Z,99.99
2016-12-16T01:52:13.866Z,99.99
2016-12-16T01:52:41.740Z,99.99
2016-12-16T01:53:09.717Z,99.99
2016-12-16T01:53:37.851Z,99.99
2016-12-16T01:54:05.948Z,99.99
2016-12-16T01:54:34.011Z,99.99
2016-12-16T01:55:02.083Z,99.99
2016-12-16T01:55:30.169Z,99.99
2016-12-16T01:55:58.430Z,99.99
2016-12-16T01:56:33.290Z,99.99
2016-12-16T01:57:03.252Z,99.99
2016-12-16T01:57:37.346Z,99.99
2016-12-16T01:58:05.460Z,99.99
2016-12-16T01:58:33.395Z,99.99
2016-12-16T01:59:01.340Z,99.99
2016-12-16T01:59:29.475Z,99.99
2016-12-16T01:59:57.408Z,99.52
2016-12-16T02:00:25.589Z,99.43
2016-12-16T02:00:53.660Z,99.52
2016-12-16T02:01:21.818Z,99.71
2016-12-16T02:01:49.851Z,99.33
2016-12-16T02:02:17.868Z,99.43
2016-12-16T02:02:45.711Z,99.14
2016-12-16T02:03:13.741Z,99.04
2016-12-16T02:03:41.760Z,99.14
2016-12-16T02:04:09.827Z,99.04
2016-12-16T02:04:37.869Z,99.24
2016-12-16T02:05:05.737Z,99.24
2016-12-16T02:05:33.759Z,99.24
2016-12-16T02:06:01.752Z,99.04
2016-12-16T02:06:29.867Z,99.04
2016-12-16T02:06:58.114Z,99.04
2016-12-16T02:07:26.134Z,99.14
2016-12-16T02:07:54.152Z,99.04
2016-12-16T02:08:22.005Z,99.1
2016-12-16T02:08:50.016Z,99.24
2016-12-16T02:09:17.923Z,99.19
2016-12-16T02:09:45.823Z,99.29
2016-12-16T02:10:13.740Z,98.61
2016-12-16T02:10:41.834Z,99
2016-12-16T02:11:09.831Z,98.61
2016-12-16T02:11:37.584Z,98.61
2016-12-16T02:12:05.654Z,98.61
2016-12-16T02:12:33.857Z,98.61
2016-12-16T02:13:01.866Z,98.71
2016-12-16T02:13:30.098Z,98.33
2016-12-16T02:13:58.134Z,98.81
2016-12-16T02:14:26.048Z,98.52
2016-12-16T02:14:54.273Z,98.81
2016-12-16T02:15:22.358Z,98.81
2016-12-16T02:15:50.376Z,99
2016-12-16T02:16:18.375Z,98.81
2016-12-16T02:16:46.383Z,98.81
2016-12-16T02:17:14.350Z,98.33
2016-12-16T02:17:42.267Z,98.33
2016-12-16T02:18:10.391Z,98.33
2016-12-16T02:18:38.416Z,97.66
2016-12-16T02:19:06.356Z,98.33
2016-12-16T02:19:34.463Z,97.85
2016-12-16T02:20:02.402Z,97.95
2016-12-16T02:20:30.330Z,97.85
2016-12-16T02:20:58.397Z,97.95
2016-12-16T02:21:26.438Z,98.04
2016-12-16T02:21:54.261Z,97.75
2016-12-16T02:22:22.492Z,97.85
2016-12-16T02:22:50.649Z,98.04
2016-12-16T02:23:18.691Z,97.95
2016-12-16T02:23:46.597Z,97.85
2016-12-16T02:24:14.615Z,97.75
2016-12-16T02:24:42.631Z,97.95
2016-12-16T02:25:10.708Z,98.04
2016-12-16T02:25:38.840Z,97.18
2016-12-16T02:26:06.912Z,97.47
2016-12-16T02:26:35.018Z,97.18
2016-12-16T02:27:03.165Z,97.18
2016-12-16T02:27:31.349Z,97.47
2016-12-16T02:27:59.542Z,96.8
2016-12-16T02:28:27.604Z,96.8
2016-12-16T02:28:55.572Z,96.8
2016-12-16T02:29:23.762Z,97.18
2016-12-16T02:29:51.807Z,97.37
2016-12-16T02:30:19.967Z,97.18
2016-12-16T02:30:47.904Z,96.89
2016-12-16T02:31:16.137Z,96.89
2016-12-16T02:31:44.284Z,97.28
2016-12-16T02:32:12.315Z,97.28
2016-12-16T02:32:40.402Z,97.37
2016-12-16T02:33:08.396Z,97.18
2016-12-16T02:33:36.358Z,96.61
2016-12-16T02:34:04.486Z,96.22
2016-12-16T02:34:32.621Z,96.13
2016-12-16T02:35:00.692Z,96.99
2016-12-16T02:35:28.441Z,96.8
2016-12-16T02:35:56.256Z,96.61
2016-12-16T02:36:24.343Z,96.8
2016-12-16T02:36:52.291Z,97.18
2016-12-16T02:37:20.438Z,97.18
2016-12-16T02:37:48.378Z,97.37
2016-12-16T02:38:16.416Z,97.28
2016-12-16T02:38:44.525Z,97.08
2016-12-16T02:39:12.637Z,97.47
2016-12-16T02:39:40.677Z,97.28
2016-12-16T02:40:08.718Z,97.56
2016-12-16T02:40:36.825Z,97.08
2016-12-16T02:41:04.953Z,96.89
2016-12-16T02:41:33.052Z,96.99
2016-12-16T02:42:01.026Z,96.51
2016-12-16T02:42:29.206Z,96.22
2016-12-16T02:42:57.256Z,96.99
2016-12-16T02:43:25.289Z,96.61
2016-12-16T02:43:53.299Z,96.99
2016-12-16T02:44:21.390Z,96.51
2016-12-16T02:44:49.498Z,96.32
2016-12-16T02:45:17.702Z,96.42
2016-12-16T02:45:45.780Z,96.8
2016-12-16T02:46:13.857Z,96.7
2016-12-16T02:46:42.034Z,96.22
2016-12-16T02:47:10.146Z,96.42
2016-12-16T02:47:38.389Z,96.42
2016-12-16T02:48:06.372Z,96.22
2016-12-16T02:48:34.634Z,96.42
2016-12-16T02:49:02.555Z,96.32
2016-12-16T02:49:30.689Z,97.08
2016-12-16T02:49:58.674Z,96.8
2016-12-16T02:50:26.696Z,96.8
2016-12-16T02:50:54.921Z,96.22
2016-12-16T02:51:23.129Z,96.32
2016-12-16T02:51:51.331Z,96.61
2016-12-16T02:52:19.494Z,96.51
2016-12-16T02:52:47.654Z,96.22
2016-12-16T02:53:15.718Z,96.32
2016-12-16T02:53:43.874Z,96.51
2016-12-16T02:54:11.970Z,96.13
2016-12-16T02:54:40.110Z,96.89
2016-12-16T02:55:08.213Z,96.89
2016-12-16T02:55:36.201Z,96.8
2016-12-16T02:56:04.204Z,96.89
2016-12-16T02:56:32.321Z,97.47
2016-12-16T02:57:00.531Z,96.8
2016-12-16T02:57:28.872Z,96.8
2016-12-16T02:57:57.102Z,96.7
2016-12-16T02:58:25.182Z,96.8
2016-12-16T02:58:53.279Z,96.99
2016-12-16T02:59:21.225Z,96.8
2016-12-16T02:59:49.327Z,96.89
2016-12-16T03:00:17.541Z,96.7
2016-12-16T03:00:45.642Z,96.8
2016-12-16T03:01:13.695Z,97.08
2016-12-16T03:01:41.809Z,96.03
2016-12-16T03:02:09.825Z,96.13
2016-12-16T03:02:37.937Z,96.99
2016-12-16T03:03:05.890Z,96.7
2016-12-16T03:03:33.990Z,96.8
2016-12-16T03:04:02.013Z,96.89
2016-12-16T03:04:30.132Z,96.8
2016-12-16T03:04:58.310Z,96.7
2016-12-16T03:05:26.484Z,96.8
2016-12-16T03:05:54.739Z,97.37
2016-12-16T03:06:22.723Z,96.89
2016-12-16T03:06:50.849Z,97.08
2016-12-16T03:07:18.918Z,97.37
2016-12-16T03:07:47.181Z,97.56
2016-12-16T03:08:15.120Z,97.47
2016-12-16T03:08:43.259Z,98.04
2016-12-16T03:09:11.241Z,97.66
2016-12-16T03:09:39.395Z,98.04
2016-12-16T03:10:07.602Z,97.95
2016-12-16T03:10:35.754Z,97.95
2016-12-16T03:11:03.869Z,97.28
2016-12-16T03:11:31.995Z,97.66
2016-12-16T03:12:00.305Z,97.47
2016-12-16T03:12:28.422Z,97.37
2016-12-16T03:12:56.557Z,97.28
2016-12-16T03:13:24.554Z,97.37
2016-12-16T03:13:52.727Z,97.56
2016-12-16T03:14:20.888Z,97.56
2016-12-16T03:14:48.919Z,97.28
2016-12-16T03:15:17.094Z,97.37
2016-12-16T03:15:45.136Z,97.28
2016-12-16T03:16:13.053Z,97.56
2016-12-16T03:16:41.002Z,96.99
2016-12-16T03:17:09.127Z,97.37
2016-12-16T03:17:37.215Z,97.18
2016-12-16T03:18:05.417Z,97.75
2016-12-16T03:18:33.516Z,97.75
2016-12-16T03:19:01.662Z,97.28
2016-12-16T03:19:29.813Z,97.37
2016-12-16T03:19:57.952Z,97.37
2016-12-16T03:20:26.006Z,97.28
2016-12-16T03:20:54.223Z,96.89
2016-12-16T03:21:22.347Z,96.99
2016-12-16T03:21:50.573Z,97.08
2016-12-16T03:22:18.485Z,97.47
2016-12-16T03:22:46.790Z,97.18
2016-12-16T03:23:14.818Z,96.99
2016-12-16T03:23:42.950Z,97.28
2016-12-16T03:24:10.885Z,96.99
2016-12-16T03:24:39.074Z,96.8
2016-12-16T03:25:07.221Z,96.61
2016-12-16T03:25:35.320Z,96.89
2016-12-16T03:26:03.233Z,96.99
2016-12-16T03:26:31.262Z,96.51
2016-12-16T03:26:59.498Z,96.8
2016-12-16T03:27:27.663Z,96.99
2016-12-16T03:27:55.917Z,96.42
2016-12-16T03:28:23.968Z,96.32
2016-12-16T03:28:51.975Z,96.13
2016-12-16T03:29:19.941Z,96.22
2016-12-16T03:29:48.226Z,96.42
2016-12-16T03:30:16.248Z,96.03
2016-12-16T03:30:44.192Z,96.03
2016-12-16T03:31:12.371Z,96.03
2016-12-16T03:31:40.498Z,95.75
2016-12-16T03:32:08.564Z,95.94
2016-12-16T03:32:36.735Z,96.22
2016-12-16T03:33:04.935Z,96.32
2016-12-16T03:33:33.101Z,96.51
2016-12-16T03:34:01.336Z,96.51
2016-12-16T03:34:29.388Z,96.51
2016-12-16T03:34:57.357Z,96.51
2016-12-16T03:35:25.302Z,96.03
2016-12-16T03:35:53.378Z,96.32
2016-12-16T03:36:21.493Z,95.84
2016-12-16T03:36:49.542Z,95.75
2016-12-16T03:37:17.677Z,95.75
2016-12-16T03:37:45.894Z,95.84
2016-12-16T03:38:13.940Z,96.61
2016-12-16T03:38:42.064Z,95.75
2016-12-16T03:39:10.203Z,96.03
2016-12-16T03:39:38.358Z,96.03
2016-12-16T03:40:06.375Z,95.84
2016-12-16T03:40:34.429Z,96.03
2016-12-16T03:41:02.515Z,96.13
2016-12-16T03:41:30.626Z,96.13
2016-12-16T03:41:58.846Z,95.75
2016-12-16T03:42:26.964Z,96.03
2016-12-16T03:42:55.194Z,96.7
2016-12-16T03:43:23.410Z,96.22
2016-12-16T03:43:51.707Z,96.13
2016-12-16T03:44:19.778Z,96.42
2016-12-16T03:44:47.790Z,96.13
2016-12-16T03:45:15.909Z,96.51
2016-12-16T03:45:43.959Z,96.51
2016-12-16T03:46:11.991Z,96.51
2016-12-16T03:46:40.140Z,96.51
2016-12-16T03:47:08.360Z,96.51
2016-12-16T03:47:36.313Z,96.61
2016-12-16T03:48:04.507Z,96.32
2016-12-16T03:48:32.635Z,96.32
2016-12-16T03:49:00.640Z,96.42
2016-12-16T03:49:28.511Z,96.51
2016-12-16T03:49:56.669Z,96.03
2016-12-16T03:50:24.666Z,95.56
2016-12-16T03:50:52.717Z,95.75
2016-12-16T03:51:20.782Z,95.65
2016-12-16T03:51:48.928Z,95.94
2016-12-16T03:52:17.054Z,95.94
2016-12-16T03:52:45.203Z,95.56
2016-12-16T03:53:13.448Z,95.56
2016-12-16T03:53:41.614Z,95.94
2016-12-16T03:54:09.581Z,95.56
2016-12-16T03:54:37.692Z,95.56
2016-12-16T03:55:05.694Z,95.46
2016-12-16T03:55:33.922Z,95.46
2016-12-16T03:56:02.144Z,95.46
2016-12-16T03:56:30.376Z,95.46
2016-12-16T03:56:58.347Z,95.27
2016-12-16T03:57:26.296Z,95.27
2016-12-16T03:57:54.306Z,95.17
2016-12-16T03:58:22.587Z,95.36
2016-12-16T03:58:50.586Z,95.17
2016-12-16T03:59:18.682Z,95.36
2016-12-16T03:59:46.781Z,95.75
2016-12-16T04:00:14.815Z,95.56
2016-12-16T04:00:42.968Z,95.36
2016-12-16T04:01:11.065Z,95.46
2016-12-16T04:01:39.114Z,96.03
2016-12-16T04:02:07.296Z,95.46
2016-12-16T04:02:35.381Z,95.56
2016-12-16T04:03:03.276Z,96.03
2016-12-16T04:03:31.555Z,95.75
2016-12-16T04:03:59.691Z,95.56
2016-12-16T04:04:27.785Z,95.51
2016-12-16T04:04:55.839Z,95.51
2016-12-16T04:05:23.773Z,95.61
2016-12-16T04:05:51.898Z,95.7
2016-12-16T04:06:19.806Z,95.61
2016-12-16T04:06:47.978Z,96.18
2016-12-16T04:07:16.010Z,96.08
2016-12-16T04:07:44.102Z,95.79
2016-12-16T04:08:12.208Z,95.89
2016-12-16T04:08:40.314Z,95.7
2016-12-16T04:09:08.442Z,95.89
2016-12-16T04:09:36.362Z,96.47
2016-12-16T04:10:04.504Z,96.27
2016-12-16T04:10:32.763Z,96.47
2016-12-16T04:11:00.685Z,96.27
2016-12-16T04:11:28.745Z,96.37
2016-12-16T04:11:56.797Z,96.37
2016-12-16T04:12:25.024Z,96.27
2016-12-16T04:12:53.189Z,96.37
2016-12-16T04:13:21.313Z,96.18
2016-12-16T04:13:49.442Z,96.37
2016-12-16T04:14:17.479Z,96.18
2016-12-16T04:14:45.584Z,96.18
2016-12-16T04:15:13.778Z,96.37
2016-12-16T04:15:41.820Z,96.18
2016-12-16T04:16:09.954Z,96.18
2016-12-16T04:16:38.101Z,96.18
2016-12-16T04:17:06.124Z,96.47
2016-12-16T04:17:34.146Z,96.27
2016-12-16T04:18:02.343Z,96.18
2016-12-16T04:18:30.541Z,96.47
2016-12-16T04:18:58.630Z,96.56
2016-12-16T04:19:26.694Z,95.79
2016-12-16T04:19:54.596Z,96.56
2016-12-16T04:20:22.584Z,96.47
2016-12-16T04:20:50.809Z,96.27
2016-12-16T04:21:18.931Z,96.66
2016-12-16T04:21:46.802Z,96.37
2016-12-16T04:22:14.893Z,96.75
2016-12-16T04:22:43.020Z,96.66
2016-12-16T04:23:11.056Z,97.13
2016-12-16T04:23:39.443Z,97.23
2016-12-16T04:24:07.293Z,96.84
2016-12-16T04:24:35.201Z,96.84
2016-12-16T04:25:03.405Z,96.94
2016-12-16T04:25:31.507Z,97.04
2016-12-16T04:25:59.565Z,97.13
2016-12-16T04:26:27.597Z,97.13
2016-12-16T04:26:55.689Z,97.33
2016-12-16T04:27:23.760Z,97.99
2016-12-16T04:27:51.900Z,97.71
2016-12-16T04:28:19.966Z,97.8
2016-12-16T04:28:47.803Z,97.8
2016-12-16T04:29:15.933Z,97.8
2016-12-16T04:29:43.944Z,97.42
2016-12-16T04:30:12.079Z,97.8
2016-12-16T04:30:40.082Z,97.8
2016-12-16T04:31:08.239Z,97.8
2016-12-16T04:31:36.397Z,97.71
2016-12-16T04:32:04.519Z,98.09
2016-12-16T04:32:32.565Z,98.09
2016-12-16T04:33:00.719Z,97.99
2016-12-16T04:33:28.626Z,97.99
2016-12-16T04:33:56.747Z,98.13
2016-12-16T04:34:24.867Z,98.85
2016-12-16T04:34:52.980Z,98.61
2016-12-16T04:35:21.106Z,98.57
2016-12-16T04:35:49.084Z,98.52
2016-12-16T04:36:17.304Z,98.61
2016-12-16T04:36:45.168Z,98.66
2016-12-16T04:37:13.193Z,98.61
2016-12-16T04:37:41.316Z,98.52
2016-12-16T04:38:09.497Z,98.66
2016-12-16T04:38:37.575Z,98.52
2016-12-16T04:39:05.610Z,98.85
2016-12-16T04:39:33.846Z,98.71
2016-12-16T04:40:01.778Z,98.42
2016-12-16T04:40:29.807Z,98.8
2016-12-16T04:40:58.086Z,98.71
2016-12-16T04:41:26.040Z,98.99
2016-12-16T04:41:54.253Z,99.38
2016-12-16T04:42:22.093Z,99.19
2016-12-16T04:42:50.075Z,98.99
2016-12-16T04:43:18.068Z,98.13
2016-12-16T04:43:46.327Z,99.19
2016-12-16T04:44:14.483Z,98.9
2016-12-16T04:44:42.633Z,98.42
2016-12-16T04:45:10.767Z,98.42
2016-12-16T04:45:38.884Z,99.28
2016-12-16T04:46:06.821Z,98.9
2016-12-16T04:46:34.681Z,98.99
2016-12-16T04:47:02.693Z,99.19
2016-12-16T04:47:30.930Z,99.38
2016-12-16T04:47:59.125Z,99.19
2016-12-16T04:48:27.228Z,98.99
2016-12-16T04:48:55.325Z,99.19
2016-12-16T04:49:23.270Z,99.38
2016-12-16T04:49:51.274Z,99.28
2016-12-16T04:50:19.401Z,99.28
2016-12-16T04:50:47.443Z,98.9
2016-12-16T04:51:15.461Z,99.09
2016-12-16T04:51:43.385Z,99.09
2016-12-16T04:52:11.559Z,99.19
2016-12-16T04:52:39.813Z,99.48
2016-12-16T04:53:07.873Z,98.99
2016-12-16T04:53:35.779Z,98.9
2016-12-16T04:54:03.989Z,99.19
2016-12-16T04:54:32.111Z,99.19
2016-12-16T04:55:00.157Z,98.9
2016-12-16T04:55:28.180Z,98.99
2016-12-16T04:55:56.184Z,98.9
2016-12-16T04:56:24.251Z,99.09
2016-12-16T04:56:52.265Z,99.19
2016-12-16T04:57:20.323Z,99.19
2016-12-16T04:57:48.410Z,99.19
2016-12-16T04:58:16.428Z,99.09
2016-12-16T04:58:44.537Z,99.38
2016-12-16T04:59:12.730Z,99.19
2016-12-16T04:59:40.834Z,99.38
2016-12-16T05:00:08.950Z,99.38
2016-12-16T05:00:36.895Z,99.57
2016-12-16T05:01:04.931Z,99.57
2016-12-16T05:01:33.172Z,99.48
2016-12-16T05:02:01.279Z,99.57
2016-12-16T05:02:29.511Z,99.28
2016-12-16T05:02:57.606Z,99.76
2016-12-16T05:03:25.760Z,99.57
2016-12-16T05:03:53.948Z,99.66
2016-12-16T05:04:21.809Z,99.66
2016-12-16T05:04:49.789Z,99.76
2016-12-16T05:05:17.831Z,99.76
2016-12-16T05:05:45.878Z,99.76
2016-12-16T05:06:14.004Z,99.99
2016-12-16T05:06:42.026Z,99.95
2016-12-16T05:07:10.182Z,99.48
2016-12-16T05:07:38.332Z,99.85
2016-12-16T05:08:06.393Z,99.57
2016-12-16T05:08:34.519Z,99.66
2016-12-16T05:09:02.667Z,99.38
2016-12-16T05:09:30.926Z,99.38
2016-12-16T05:09:59.028Z,99.57
2016-12-16T05:10:27.149Z,99.76
2016-12-16T05:10:55.232Z,99.85
2016-12-16T05:11:23.279Z,99.99
2016-12-16T05:11:51.434Z,99.99
2016-12-16T05:12:19.660Z,99.38
2016-12-16T05:12:47.761Z,99.28
2016-12-16T05:13:15.861Z,99.48
2016-12-16T05:13:43.815Z,99.85
2016-12-16T05:14:12.087Z,99.85
2016-12-16T05:14:40.258Z,99.76
2016-12-16T05:15:08.179Z,99.76
2016-12-16T05:15:36.302Z,99.48
2016-12-16T05:16:04.318Z,99.95
2016-12-16T05:16:32.442Z,99.57
2016-12-16T05:17:00.530Z,99.48
2016-12-16T05:17:28.779Z,99.57
2016-12-16T05:17:57.013Z,99.85
2016-12-16T05:18:25.020Z,99.99
2016-12-16T05:18:53.153Z,99.85
2016-12-16T05:19:21.308Z,99.99
2016-12-16T05:19:49.328Z,99.99
2016-12-16T05:20:17.471Z,99.99
2016-12-16T05:20:45.564Z,99.99
2016-12-16T05:21:13.654Z,99.99
2016-12-16T05:21:41.695Z,99.76
2016-12-16T05:22:09.711Z,99.76
2016-12-16T05:22:37.763Z,99.99
2016-12-16T05:23:05.966Z,99.76
2016-12-16T05:23:34.093Z,99.76
2016-12-16T05:24:02.245Z,99.95
2016-12-16T05:24:30.443Z,99.76
2016-12-16T05:24:58.529Z,99.99
2016-12-16T05:25:26.657Z,99.99
2016-12-16T05:25:54.716Z,99.95
2016-12-16T05:26:22.701Z,99.99
2016-12-16T05:26:50.897Z,99.99
2016-12-16T05:27:18.906Z,99.99
2016-12-16T05:27:47.058Z,99.99
2016-12-16T05:28:15.029Z,99.99
2016-12-16T05:28:43.173Z,99.99
2016-12-16T05:29:11.129Z,99.99
2016-12-16T05:29:39.157Z,99.99
2016-12-16T05:30:07.309Z,99.99
2016-12-16T05:30:35.289Z,99.9
2016-12-16T05:31:03.323Z,99.99
2016-12-16T05:31:31.361Z,99.9
2016-12-16T05:31:59.524Z,99.9
2016-12-16T05:32:27.473Z,99.99
2016-12-16T05:32:55.403Z,99.99
2016-12-16T05:33:23.616Z,99.99
2016-12-16T05:33:51.726Z,99.9
2016-12-16T05:34:19.979Z,99.99
2016-12-16T05:34:47.985Z,99.99
2016-12-16T05:35:16.135Z,99.99
2016-12-16T05:35:44.287Z,99.99
2016-12-16T05:36:12.375Z,99.99
2016-12-16T05:36:40.432Z,99.99
2016-12-16T05:37:08.643Z,99.99
2016-12-16T05:37:36.744Z,99.99
2016-12-16T05:38:04.787Z,99.99
2016-12-16T05:38:32.906Z,99.99
2016-12-16T05:39:01.006Z,99.99
2016-12-16T05:39:29.207Z,99.99
2016-12-16T05:39:57.341Z,99.99
2016-12-16T05:40:25.565Z,99.99
2016-12-16T05:40:53.681Z,99.99
2016-12-16T05:41:21.770Z,99.99
2016-12-16T05:41:49.899Z,99.99
2016-12-16T05:42:18.030Z,99.99
2016-12-16T05:42:46.093Z,99.99
2016-12-16T05:43:14.186Z,99.99
2016-12-16T05:43:42.143Z,99.99
2016-12-16T05:44:10.169Z,99.99
2016-12-16T05:44:38.615Z,99.99
2016-12-16T05:45:06.530Z,99.99
2016-12-16T05:45:34.875Z,99.99
2016-12-16T05:46:02.801Z,99.99
2016-12-16T05:46:30.946Z,99.99
2016-12-16T05:46:59.039Z,99.99
2016-12-16T05:47:27.199Z,99.99
2016-12-16T05:47:55.134Z,99.99
2016-12-16T05:48:23.142Z,99.99
2016-12-16T05:48:51.354Z,99.99
2016-12-16T05:49:19.620Z,99.99
2016-12-16T05:49:48.001Z,99.99
2016-12-16T05:50:16.052Z,99.99
2016-12-16T05:50:44.076Z,99.99
2016-12-16T05:51:12.226Z,99.99
2016-12-16T05:51:40.344Z,99.99
2016-12-16T05:52:08.384Z,99.99
2016-12-16T05:52:36.667Z,99.99
2016-12-16T05:53:04.861Z,99.99
2016-12-16T05:53:33.109Z,99.99
2016-12-16T05:54:01.460Z,99.99
2016-12-16T05:54:29.813Z,99.99
2016-12-16T05:54:57.905Z,99.99
2016-12-16T05:55:26.226Z,99.99
2016-12-16T05:55:54.329Z,99.99
2016-12-16T05:56:22.383Z,99.99
2016-12-16T05:56:50.392Z,99.99
2016-12-16T05:57:18.553Z,99.99
2016-12-16T05:57:46.584Z,99.99
2016-12-16T05:58:14.747Z,99.99
2016-12-16T05:58:42.875Z,99.99
2016-12-16T05:59:10.996Z,99.99
2016-12-16T05:59:39.128Z,99.99
2016-12-16T06:00:07.331Z,99.99
2016-12-16T06:00:35.616Z,99.99
2016-12-16T06:01:03.697Z,99.99
2016-12-16T06:01:31.728Z,99.99
2016-12-16T06:01:59.937Z,99.99
2016-12-16T06:02:27.995Z,99.99
2016-12-16T06:02:56.087Z,99.99
2016-12-16T06:03:24.548Z,99.99
2016-12-16T06:03:53.074Z,99.99
2016-12-16T06:04:21.311Z,99.99